createdAt,value
2023-04-02T00:01:16.594Z,99100.66
2023-04-02T00:03:22.365Z,99104.59
2023-04-02T00:05:26.148Z,99107.41
2023-04-02T00:07:31.307Z,99097.31
2023-04-02T00:09:37.818Z,99095.75
2023-04-02T00:11:54.808Z,99098.16
2023-04-02T00:14:01.808Z,99093.03
2023-04-02T00:16:08.054Z,99088.97
2023-04-02T00:18:15.452Z,99082.38
2023-04-02T00:20:20.131Z,99072.06
2023-04-02T00:22:29.469Z,99074.44
2023-04-02T00:24:32.978Z,99063.19
2023-04-02T00:26:43.601Z,99063.44
2023-04-02T00:28:46.225Z,99060.91
2023-04-02T00:30:53.051Z,99059.69
2023-04-02T00:32:55.498Z,99046.94
2023-04-02T00:34:59.386Z,99045.47
2023-04-02T00:37:02.823Z,99045.88
2023-04-02T08:16:22.011Z,99582.53
2023-04-02T08:18:28.358Z,99582.53
2023-04-02T08:20:32.250Z,99551.81
2023-04-02T08:22:35.274Z,99542.75
2023-04-02T08:24:38.210Z,99554.81
2023-04-02T08:26:42.986Z,99556.84
2023-04-02T08:28:46.624Z,99579.13
2023-04-02T08:30:50.465Z,99596.56
2023-04-02T08:32:53.508Z,99603.56
2023-04-02T08:34:58.671Z,99619.72
2023-04-02T08:37:04.148Z,99642.31
2023-04-02T08:39:14.928Z,99638.69
2023-04-02T08:41:23.350Z,99630.88
2023-04-02T08:44:00.121Z,99646.78
2023-04-02T08:46:09.561Z,99635.56
2023-04-02T08:48:16.061Z,99648.16
2023-04-02T08:50:31.134Z,99650.47
2023-04-02T08:52:38.824Z,99647.44
2023-04-02T08:54:43.862Z,99643.69
2023-04-02T08:56:56.861Z,99642.44
2023-04-02T08:59:09.610Z,99644.13
2023-04-02T09:01:35.186Z,99640.75
2023-04-02T09:03:45.879Z,99667.72
2023-04-02T09:05:51.097Z,99678.91
2023-04-02T09:07:58.592Z,99684.97
2023-04-02T09:10:03.105Z,99687.56
2023-04-02T09:12:16.444Z,99686.28
2023-04-02T09:14:24.756Z,99684.19
2023-04-02T09:16:49.804Z,99697.13
2023-04-02T09:18:54.201Z,99713.38
2023-04-02T09:20:56.845Z,99712.03
2023-04-02T09:23:00.039Z,99712.25
2023-04-02T09:25:17.565Z,99715.66
2023-04-02T09:27:23.233Z,99714.25
2023-04-02T09:29:45.389Z,99721.19
2023-04-02T09:32:13.297Z,99735.63
2023-04-02T09:34:36.663Z,99717.69
2023-04-02T09:36:40.075Z,99728.91
2023-04-02T09:38:58.360Z,99742.47
2023-04-02T09:41:04.225Z,99740.88
2023-04-02T09:43:17.141Z,99725.78
2023-04-02T09:45:26.871Z,99724.44
2023-04-02T09:47:32.502Z,99741.09
2023-04-02T09:49:38.173Z,99717.44
2023-04-02T09:51:40.996Z,99732.78
2023-04-02T09:53:49.458Z,99725.53
2023-04-02T09:56:11.667Z,99729.59
2023-04-02T09:58:17.559Z,99724.41
2023-04-02T10:00:41.845Z,99723.88
2023-04-02T10:02:59.139Z,99722.56
2023-04-02T10:05:06.152Z,99711.81
2023-04-02T10:07:37.096Z,99730.06
2023-04-02T10:09:41.546Z,99730.69
2023-04-02T10:11:46.632Z,99740.88
2023-04-02T10:13:56.924Z,99731.56
2023-04-02T10:16:04.078Z,99746.66
2023-04-02T10:18:36.660Z,99733.06
2023-04-02T10:20:50.439Z,99741.59
2023-04-02T10:22:55.302Z,99755.56
2023-04-02T10:24:59.472Z,99754.25
2023-04-02T10:27:22.957Z,99744.66
2023-04-02T10:29:45.108Z,99744.03
2023-04-02T10:31:57.908Z,99746.28
2023-04-02T10:34:05.659Z,99735.88
2023-04-02T10:36:50.924Z,99720.69
2023-04-02T10:39:10.503Z,99720.75
2023-04-02T10:41:40.905Z,99727.53
2023-04-02T10:44:17.058Z,99724.50
2023-04-02T10:46:45.637Z,99714.41
2023-04-02T10:49:02.025Z,99715.19
2023-04-02T10:51:15.098Z,99741.56
2023-04-02T10:53:21.440Z,99731.16
2023-04-02T10:55:29.445Z,99729.72
2023-04-02T10:57:43.657Z,99741.91
2023-04-02T10:59:56.740Z,99723.25
2023-04-02T11:02:03.964Z,99733.44
2023-04-02T11:04:25.726Z,99714.84
2023-04-02T11:07:11.246Z,99712.13
2023-04-02T11:09:25.916Z,99701.38
2023-04-02T11:11:37.019Z,99706.41
2023-04-02T11:13:55.185Z,99692.03
2023-04-02T11:15:58.863Z,99699.28
2023-04-02T11:18:03.233Z,99716.59
2023-04-02T11:20:49.096Z,99729.91
2023-04-02T11:23:12.811Z,99761.38
2023-04-02T11:25:23.286Z,99776.22
2023-04-02T11:27:29.726Z,99794.84
2023-04-02T11:29:34.716Z,99802.78
2023-04-02T11:31:48.062Z,99792.78
2023-04-02T11:34:17.890Z,99779.00
2023-04-02T11:36:52.930Z,99760.53
2023-04-02T11:39:01.878Z,99750.94
2023-04-02T11:41:14.651Z,99746.22
2023-04-02T11:43:37.428Z,99743.34
2023-04-02T11:45:52.874Z,99751.47
2023-04-02T11:48:05.907Z,99762.94
2023-04-02T11:50:32.053Z,99789.41
2023-04-02T11:52:54.838Z,99820.13
2023-04-02T11:55:03.657Z,99823.50
2023-04-02T11:57:41.386Z,99839.75
2023-04-02T12:00:02.344Z,99844.97
2023-04-02T12:02:32.595Z,99851.38
2023-04-02T12:04:59.929Z,99854.78
2023-04-02T12:07:35.908Z,99834.34
2023-04-02T12:09:52.486Z,99844.91
2023-04-02T12:12:15.277Z,99835.13
2023-04-02T12:14:49.053Z,99836.34
2023-04-02T12:16:55.628Z,99828.66
2023-04-02T12:19:09.740Z,99837.66
2023-04-02T12:21:21.642Z,99830.84
2023-04-02T12:23:31.734Z,99826.19
2023-04-02T12:25:40.915Z,99824.34
2023-04-02T12:27:50.596Z,99811.06
2023-04-02T12:30:21.543Z,99810.91
2023-04-02T12:32:31.767Z,99802.66
2023-04-02T12:34:36.406Z,99789.03
2023-04-02T12:36:40.862Z,99812.81
2023-04-02T12:38:48.226Z,99819.38
2023-04-02T12:40:59.867Z,99805.00
2023-04-02T12:43:03.283Z,99800.03
2023-04-02T12:45:09.612Z,99815.06
2023-04-02T12:47:16.171Z,99812.91
2023-04-02T12:49:23.782Z,99812.88
2023-04-02T12:51:28.477Z,99801.16
2023-04-02T12:53:42.179Z,99791.75
2023-04-02T12:55:53.645Z,99779.06
2023-04-02T12:57:58.164Z,99792.34
2023-04-02T13:00:22.989Z,99784.31
2023-04-02T13:02:30.217Z,99784.75
2023-04-02T13:04:33.755Z,99780.00
2023-04-02T13:06:37.503Z,99777.00
2023-04-02T13:08:44.933Z,99780.00
2023-04-02T13:10:58.035Z,99783.16
2023-04-02T13:13:03.777Z,99781.53
2023-04-02T13:15:09.810Z,99790.19
2023-04-02T13:20:32.828Z,99786.88
2023-04-02T13:22:35.900Z,99786.88
2023-04-02T13:24:38.245Z,99789.94
2023-04-02T13:26:41.819Z,99774.53
2023-04-02T13:29:23.814Z,99776.53
2023-04-02T13:31:26.932Z,99748.28
2023-04-02T13:33:29.487Z,99754.66
2023-04-02T13:35:32.648Z,99754.66
2023-04-02T13:37:35.323Z,99755.94
2023-04-02T13:39:37.909Z,99753.88
2023-04-02T13:41:51.222Z,99768.16
2023-04-02T13:43:55.722Z,99765.31
2023-04-02T13:46:00.323Z,99763.03
2023-04-02T13:48:04.608Z,99755.13
2023-04-02T13:50:07.655Z,99759.56
2023-04-02T13:52:14.683Z,99755.22
2023-04-02T13:54:23.804Z,99753.66
2023-04-02T13:56:27.473Z,99770.28
2023-04-02T13:58:29.880Z,99753.91
2023-04-02T14:00:34.175Z,99754.53
2023-04-02T14:02:44.030Z,99752.72
2023-04-02T14:04:55.462Z,99765.94
2023-04-02T14:07:08.370Z,99759.63
2023-04-02T14:09:22.072Z,99760.62
2023-04-02T14:11:43.318Z,99767.31
2023-04-02T14:13:54.662Z,99747.06
2023-04-02T14:16:13.942Z,99754.22
2023-04-02T14:18:39.765Z,99742.63
2023-04-02T14:20:42.597Z,99743.91
2023-04-02T14:23:08.358Z,99740.56
2023-04-02T14:25:13.721Z,99751.59
2023-04-02T14:27:16.606Z,99757.72
2023-04-02T14:29:31.687Z,99765.91
2023-04-02T14:31:47.338Z,99771.25
2023-04-02T14:33:57.622Z,99789.72
2023-04-02T14:36:23.896Z,99768.09
2023-04-02T14:39:02.277Z,99772.75
2023-04-02T14:41:18.019Z,99763.91
2023-04-02T14:43:31.173Z,99738.53
2023-04-02T14:45:55.443Z,99746.88
2023-04-02T14:48:03.225Z,99749.75
2023-04-02T14:50:21.052Z,99729.69
2023-04-02T14:52:27.464Z,99743.19
2023-04-02T14:54:43.703Z,99738.19
2023-04-02T14:56:54.544Z,99743.84
2023-04-02T14:59:17.474Z,99729.97
2023-04-02T15:01:32.943Z,99719.41
2023-04-02T15:03:46.092Z,99710.59
2023-04-02T15:06:04.747Z,99704.34
2023-04-02T15:08:18.800Z,99686.47
2023-04-02T15:10:31.080Z,99690.88
2023-04-02T15:12:37.970Z,99680.37
2023-04-02T15:14:51.425Z,99671.19
2023-04-02T15:16:54.117Z,99632.88
2023-04-02T15:18:59.948Z,99557.44
2023-04-02T15:21:53.871Z,99512.44
2023-04-02T15:24:19.045Z,99443.16
2023-04-02T15:26:39.961Z,99401.19
2023-04-02T15:28:59.155Z,99321.75
2023-04-02T15:31:09.340Z,99079.81
2023-04-02T15:33:42.003Z,98803.09
2023-04-02T15:35:53.040Z,98700.94
2023-04-02T15:38:18.257Z,98530.03
2023-04-02T15:40:53.628Z,98369.31
2023-04-02T15:43:24.898Z,98251.75
2023-04-02T15:46:06.712Z,98206.31
2023-04-02T15:48:30.759Z,98197.88
2023-04-02T15:50:52.939Z,98176.25
2023-04-02T15:53:23.806Z,98176.31
2023-04-02T15:55:38.794Z,98185.66
2023-04-02T15:58:05.612Z,98191.34
2023-04-02T16:00:24.812Z,98201.56
2023-04-02T16:03:03.085Z,98216.41
2023-04-02T16:05:48.744Z,98227.25
2023-04-02T16:07:57.733Z,98252.06
2023-04-02T16:10:42.976Z,98258.00
2023-04-02T16:12:51.008Z,98256.63
2023-04-02T16:15:09.088Z,98247.00
2023-04-02T16:17:33.674Z,98256.19
2023-04-02T16:19:42.234Z,98253.09
2023-04-02T16:21:57.404Z,98245.94
2023-04-02T16:24:02.020Z,98259.19
2023-04-02T16:26:22.532Z,98287.06
2023-04-02T16:28:32.159Z,98326.59
2023-04-02T16:30:59.383Z,98369.47
2023-04-02T16:33:30.814Z,98402.13
2023-04-02T16:36:01.743Z,98417.53
2023-04-02T16:38:27.586Z,98440.28
2023-04-02T16:41:07.096Z,98455.28
2023-04-02T16:43:35.756Z,98523.59
2023-04-02T16:46:05.383Z,98536.81
2023-04-02T16:48:14.001Z,98600.03
2023-04-02T16:50:40.532Z,98595.34
2023-04-02T16:53:11.347Z,98592.31
2023-04-02T16:55:24.108Z,98628.44
2023-04-02T16:57:52.096Z,98639.19
2023-04-02T17:00:37.929Z,98677.97
2023-04-02T17:03:08.373Z,98659.56
2023-04-02T17:05:29.722Z,98678.16
2023-04-02T17:07:35.821Z,98670.13
2023-04-02T17:09:52.226Z,98688.50
2023-04-02T17:12:05.488Z,98761.63
2023-04-02T17:14:14.615Z,98776.91
2023-04-02T17:16:29.736Z,98889.84
2023-04-02T17:18:34.721Z,98941.56
2023-04-02T17:20:38.895Z,99062.13
2023-04-02T17:23:05.305Z,99162.56
2023-04-02T17:25:22.330Z,99259.84
2023-04-02T17:27:41.679Z,99364.34
2023-04-02T17:29:53.124Z,99406.63
2023-04-02T17:32:01.654Z,99442.97
2023-04-02T17:34:13.945Z,99483.37
2023-04-02T17:36:26.758Z,99525.56
2023-04-02T17:38:44.149Z,99525.84
2023-04-02T17:40:50.738Z,99556.00
2023-04-02T17:42:59.068Z,99536.97
2023-04-02T17:45:14.691Z,99546.38
2023-04-02T17:47:50.174Z,99552.34
2023-04-02T17:49:56.456Z,99576.78
2023-04-02T17:52:10.117Z,99594.59
2023-04-02T17:54:20.978Z,99580.63
2023-04-02T17:57:00.004Z,99602.97
2023-04-02T17:59:12.666Z,99628.28
2023-04-02T18:01:53.401Z,99642.19
2023-04-02T18:04:08.869Z,99658.19
2023-04-02T18:06:35.131Z,99668.47
2023-04-02T18:09:10.887Z,99678.38
2023-04-02T18:11:31.556Z,99678.16
2023-04-02T18:13:46.094Z,99680.69
2023-04-02T18:16:10.292Z,99693.94
2023-04-02T18:18:17.131Z,99697.19
2023-04-02T18:20:37.784Z,99696.84
2023-04-02T18:22:45.772Z,99714.25
2023-04-02T18:25:10.509Z,99724.84
2023-04-02T18:27:23.033Z,99723.44
2023-04-02T18:29:43.831Z,99733.06
2023-04-02T18:31:59.687Z,99745.62
2023-04-02T18:34:20.429Z,99749.69
2023-04-02T18:36:39.556Z,99750.44
2023-04-02T18:38:53.737Z,99751.66
2023-04-02T18:41:27.106Z,99755.66
2023-04-02T18:43:57.594Z,99760.03
2023-04-02T18:46:35.127Z,99748.47
2023-04-02T18:49:01.118Z,99751.59
2023-04-02T18:51:26.076Z,99769.28
2023-04-02T18:53:33.461Z,99765.81
2023-04-02T18:55:37.670Z,99794.78
2023-04-02T18:57:45.068Z,99795.19
2023-04-02T19:00:21.071Z,99810.69
2023-04-02T19:02:41.223Z,99798.56
2023-04-02T19:04:58.981Z,99808.41
2023-04-02T19:07:13.295Z,99805.72
2023-04-02T19:09:26.773Z,99804.91
2023-04-02T19:11:32.121Z,99804.78
2023-04-02T19:13:36.117Z,99797.88
2023-04-02T19:16:04.131Z,99809.25
2023-04-02T19:18:20.631Z,99814.47
2023-04-02T19:20:51.475Z,99823.97
2023-04-02T19:23:13.852Z,99831.38
2023-04-02T19:25:31.861Z,99832.56
2023-04-02T19:27:54.246Z,99832.56
2023-04-02T19:30:07.390Z,99836.16
2023-04-02T19:32:40.516Z,99852.03
2023-04-02T19:35:19.759Z,99855.16
2023-04-02T19:37:42.071Z,99860.12
2023-04-02T19:40:27.040Z,99863.81
2023-04-02T19:42:49.949Z,99869.72
2023-04-02T19:44:54.950Z,99868.56
2023-04-02T19:46:59.179Z,99866.03
2023-04-02T19:49:11.347Z,99875.47
2023-04-02T19:51:15.231Z,99868.25
2023-04-02T19:53:19.712Z,99867.75
2023-04-02T19:55:27.574Z,99878.16
2023-04-02T19:57:32.579Z,99890.00
2023-04-02T19:59:37.560Z,99888.25
2023-04-02T20:01:41.418Z,99890.84
2023-04-02T20:03:44.517Z,99882.88
2023-04-02T20:05:48.121Z,99896.50
2023-04-02T20:07:51.180Z,99899.34
2023-04-02T20:09:55.171Z,99905.81
2023-04-02T20:11:58.323Z,99909.53
2023-04-02T20:14:02.100Z,99908.66
2023-04-02T20:16:08.252Z,99905.25
2023-04-02T20:18:12.071Z,99903.72
2023-04-02T20:20:16.743Z,99907.81
2023-04-02T20:22:20.809Z,99910.41
2023-04-02T20:24:24.121Z,99911.25
2023-04-02T20:26:28.245Z,99906.66
2023-04-02T20:28:33.184Z,99919.69
2023-04-02T20:30:36.838Z,99922.47
2023-04-02T20:32:41.071Z,99924.41
2023-04-02T20:34:44.664Z,99919.88
2023-04-02T20:36:49.733Z,99921.03
2023-04-02T20:38:53.336Z,99927.84
2023-04-02T20:40:57.112Z,99924.63
2023-04-02T20:42:59.916Z,99926.19
2023-04-02T20:45:05.141Z,99928.91
2023-04-02T20:47:09.520Z,99935.84
2023-04-02T20:49:12.251Z,99938.81
2023-04-02T20:51:52.283Z,99959.72
2023-04-02T20:53:55.552Z,99953.84
2023-04-02T20:56:10.548Z,99951.00
2023-04-02T20:58:18.778Z,99949.84
2023-04-02T21:00:22.422Z,99954.91
2023-04-02T21:02:25.562Z,99957.66
2023-04-02T21:04:28.811Z,99959.66
2023-04-02T21:06:34.815Z,99962.19
2023-04-02T21:08:37.212Z,99961.53
2023-04-02T21:10:40.479Z,99973.56
2023-04-02T21:12:43.120Z,99971.66
2023-04-02T21:14:45.516Z,99988.06
2023-04-02T21:16:47.902Z,99982.41
2023-04-02T21:18:53.447Z,99982.00
2023-04-02T21:21:06.390Z,99986.91
2023-04-02T21:23:08.758Z,100005.12
2023-04-02T21:25:11.412Z,100001.12
2023-04-02T21:27:13.864Z,99991.66
2023-04-02T21:29:16.346Z,99987.53
2023-04-02T21:31:27.928Z,99988.28
2023-04-02T21:33:31.462Z,99982.75
2023-04-02T21:35:34.334Z,99969.28
2023-04-02T21:37:37.131Z,99960.53
2023-04-02T21:39:39.412Z,99956.66
2023-04-02T21:41:44.804Z,99954.06
2023-04-02T21:43:48.456Z,99940.03
2023-04-02T21:45:51.735Z,99938.50
2023-04-02T21:47:54.169Z,99950.28
2023-04-02T21:49:56.863Z,99961.44
